Time;durP1;ratioP1;P1;durP2;ratioP2;P2;SDS_P1;SDS_P2;PMS_P1;PMS_P2;Temp;Humidity;BMP_temperature;BMP_pressure;BME280_temperature;BME280_humidity;BME280_pressure;Samples;Min_cycle;Max_cycle;Signal;HPM_P1;HPM_P2
2022/04/08 00:02:05;;;;;;;8.63;3.53;;;18.80;94.10;;;;;;5051235;28;20274;-76
2022/04/08 00:04:32;;;;;;;9.40;4.17;;;19.00;94.00;;;;;;5049697;28;20179;-79
2022/04/08 00:07:01;;;;;;;9.53;3.50;;;19.10;94.00;;;;;;5038586;28;20185;-80
2022/04/08 00:09:28;;;;;;;9.10;3.47;;;19.20;94.00;;;;;;5051578;28;20202;-84
2022/04/08 00:11:56;;;;;;;13.63;4.07;;;19.40;93.90;;;;;;5059824;28;20266;-81
2022/04/08 00:14:23;;;;;;;8.00;3.30;;;19.50;93.50;;;;;;5052570;28;20203;-82
2022/04/08 00:16:51;;;;;;;8.33;3.30;;;19.60;93.30;;;;;;5043524;28;20207;-92
2022/04/08 00:19:19;;;;;;;6.57;3.47;;;19.60;93.10;;;;;;5053062;28;20521;-81
2022/04/08 00:21:48;;;;;;;9.57;3.27;;;19.70;93.20;;;;;;5052452;28;20225;-82
2022/04/08 00:24:19;;;;;;;10.60;3.47;;;19.80;92.70;;;;;;5055119;28;20276;-83
2022/04/08 00:26:47;;;;;;;8.40;2.90;;;19.90;93.00;;;;;;5052644;28;20204;-81
2022/04/08 00:29:15;;;;;;;8.80;3.37;;;20.20;93.00;;;;;;5052499;28;20266;-88
2022/04/08 00:31:43;;;;;;;7.90;3.10;;;20.30;92.20;;;;;;5043073;28;20180;-83
2022/04/08 00:34:10;;;;;;;11.23;3.33;;;20.50;91.20;;;;;;5050452;28;20190;-87
2022/04/08 00:36:37;;;;;;;10.87;3.10;;;20.70;91.20;;;;;;5056866;28;20216;-78
2022/04/08 00:39:05;;;;;;;11.50;2.90;;;20.70;89.70;;;;;;5040911;28;20190;-79
2022/04/08 00:41:32;;;;;;;12.07;3.40;;;20.80;89.80;;;;;;5051102;28;20697;-77
2022/04/08 00:44:00;;;;;;;9.43;2.37;;;21.00;89.50;;;;;;5054767;28;20176;-78
2022/04/08 00:46:27;;;;;;;8.63;2.47;;;21.30;88.50;;;;;;5049923;28;20298;-78
2022/04/08 00:48:55;;;;;;;9.87;2.63;;;21.60;87.50;;;;;;5038537;28;20188;-78
2022/04/08 00:51:23;;;;;;;12.97;2.20;;;21.80;85.80;;;;;;5046017;28;20491;-77
2022/04/08 00:53:51;;;;;;;12.00;2.30;;;22.10;85.50;;;;;;5054026;28;20569;-84
2022/04/08 00:56:21;;;;;;;7.97;1.90;;;22.10;81.90;;;;;;5050162;28;20194;-87
2022/04/08 00:58:48;;;;;;;13.00;1.70;;;22.30;82.30;;;;;;5049078;28;20267;-80
2022/04/08 01:01:16;;;;;;;9.23;1.80;;;22.60;81.50;;;;;;5033528;28;20582;-80
2022/04/08 01:03:43;;;;;;;8.27;4.10;;;22.90;80.40;;;;;;5041789;28;20271;-80
2022/04/08 01:06:10;;;;;;;8.57;2.00;;;22.70;78.70;;;;;;5052476;28;20247;-83
2022/04/08 01:08:39;;;;;;;5.47;1.90;;;22.50;78.60;;;;;;5050188;28;20176;-85
2022/04/08 01:11:06;;;;;;;10.17;1.50;;;22.90;78.40;;;;;;5046569;28;20220;-78
2022/04/08 01:13:35;;;;;;;5.87;1.33;;;22.90;75.00;;;;;;5054144;28;20552;-78
2022/04/08 01:16:06;;;;;;;7.77;0.90;;;23.10;74.60;;;;;;5054303;28;20211;-77
2022/04/08 01:18:33;;;;;;;4.97;1.23;;;23.30;72.80;;;;;;5048955;28;20219;-82
2022/04/08 01:21:10;;;;;;;6.27;1.70;;;23.30;73.50;;;;;;5050932;28;20183;-77
2022/04/08 01:23:38;;;;;;;3.47;1.07;;;23.50;71.90;;;;;;5055150;28;20195;-76
2022/04/08 01:26:09;;;;;;;7.33;1.90;;;23.50;71.00;;;;;;5048470;28;20220;-79
2022/04/08 01:28:36;;;;;;;6.13;1.20;;;23.50;71.70;;;;;;5044219;28;20180;-81
2022/04/08 01:31:04;;;;;;;6.40;1.30;;;23.70;70.20;;;;;;5055091;28;20195;-75
2022/04/08 01:33:31;;;;;;;3.93;1.30;;;24.00;69.70;;;;;;5054570;28;20639;-75
2022/04/08 01:35:58;;;;;;;3.43;1.07;;;23.90;69.70;;;;;;5054735;28;20184;-80
2022/04/08 01:38:26;;;;;;;2.90;0.80;;;23.80;68.60;;;;;;5053585;28;20188;-79
2022/04/08 01:40:53;;;;;;;5.93;1.20;;;23.80;68.40;;;;;;5082047;28;20212;-74
2022/04/08 01:43:20;;;;;;;6.57;1.77;;;23.70;68.20;;;;;;5044465;28;20192;-76
2022/04/08 01:45:48;;;;;;;7.80;2.53;;;24.00;68.30;;;;;;5053823;28;20216;-75
2022/04/08 01:48:15;;;;;;;7.53;2.10;;;24.20;67.50;;;;;;5054830;28;20184;-78
2022/04/08 01:50:43;;;;;;;6.43;1.30;;;24.20;66.30;;;;;;5050675;28;20289;-75
2022/04/08 01:53:10;;;;;;;7.03;1.03;;;23.90;67.80;;;;;;5051999;28;20270;-76
2022/04/08 01:55:37;;;;;;;5.33;1.33;;;23.80;67.10;;;;;;5051438;28;20203;-73
2022/04/08 01:58:05;;;;;;;4.13;1.10;;;23.80;66.70;;;;;;5047504;28;20643;-73
2022/04/08 02:00:32;;;;;;;5.77;1.40;;;23.80;67.00;;;;;;5050959;28;20626;-73
2022/04/08 02:03:00;;;;;;;6.47;1.20;;;24.00;65.90;;;;;;5051939;28;20186;-74
2022/04/08 02:05:28;;;;;;;6.80;1.20;;;24.40;65.30;;;;;;5052800;28;20689;-72
2022/04/08 02:07:55;;;;;;;5.60;1.50;;;24.50;65.20;;;;;;5051196;28;20183;-75
2022/04/08 02:10:25;;;;;;;8.83;4.60;;;24.40;65.60;;;;;;5050490;28;20188;-72
2022/04/08 02:12:53;;;;;;;12.07;3.20;;;24.40;66.20;;;;;;5047891;28;20654;-72
2022/04/08 02:15:32;;;;;;;10.30;1.90;;;24.40;66.90;;;;;;5049194;28;20206;-74
2022/04/08 02:18:00;;;;;;;4.50;1.53;;;24.60;65.40;;;;;;5054685;28;20213;-72
2022/04/08 02:20:29;;;;;;;4.00;1.00;;;24.60;63.70;;;;;;5053812;28;20641;-71
2022/04/08 02:22:57;;;;;;;10.60;2.83;;;24.70;63.40;;;;;;5052829;28;20210;-72
2022/04/08 02:25:26;;;;;;;6.00;1.90;;;24.80;63.30;;;;;;5037859;28;20294;-73
2022/04/08 02:27:53;;;;;;;8.70;1.40;;;24.80;62.90;;;;;;5048817;28;20184;-74
2022/04/08 02:30:21;;;;;;;5.23;1.30;;;25.00;62.90;;;;;;5052383;28;20806;-71
2022/04/08 02:32:48;;;;;;;6.60;1.33;;;25.60;62.50;;;;;;5048477;28;20278;-78
2022/04/08 02:35:17;;;;;;;6.93;1.60;;;25.30;62.50;;;;;;5046860;28;20245;-72
2022/04/08 02:37:45;;;;;;;8.83;3.03;;;25.60;62.20;;;;;;5051522;28;20204;-72
2022/04/08 02:40:12;;;;;;;8.83;1.83;;;26.10;61.30;;;;;;5046674;28;20218;-73
2022/04/08 02:42:40;;;;;;;7.47;1.50;;;26.40;59.80;;;;;;5052931;28;20216;-74
2022/04/08 02:45:08;;;;;;;7.07;1.30;;;25.80;61.20;;;;;;5053760;28;20200;-74
2022/04/08 02:47:42;;;;;;;6.63;1.60;;;25.30;63.60;;;;;;5054312;28;20270;-73
2022/04/08 02:50:10;;;;;;;6.97;1.30;;;24.50;67.40;;;;;;5040917;28;20586;-74
2022/04/08 02:52:40;;;;;;;6.40;1.20;;;24.30;68.10;;;;;;5050624;28;20184;-76
2022/04/08 02:55:08;;;;;;;6.40;1.00;;;23.40;74.60;;;;;;5052080;28;20180;-76
2022/04/08 02:57:44;;;;;;;3.67;0.90;;;22.80;78.90;;;;;;5054141;28;20168;-73
2022/04/08 03:00:20;;;;;;;3.80;0.90;;;22.70;80.20;;;;;;5052531;28;20180;-73
2022/04/08 03:02:49;;;;;;;3.60;1.00;;;22.70;80.10;;;;;;5052621;28;20211;-73
2022/04/08 03:05:17;;;;;;;4.93;1.20;;;22.70;78.60;;;;;;5049130;28;20206;-72
2022/04/08 03:07:44;;;;;;;4.73;1.10;;;22.80;74.90;;;;;;5047397;28;20219;-74
2022/04/08 03:10:13;;;;;;;3.37;1.10;;;23.50;72.20;;;;;;5044631;28;20175;-75
2022/04/08 03:12:40;;;;;;;6.93;1.43;;;23.90;71.70;;;;;;5050666;28;20872;-72
2022/04/08 03:15:08;;;;;;;7.70;1.40;;;23.70;71.70;;;;;;5051631;28;20187;-71
2022/04/08 03:17:38;;;;;;;9.63;1.90;;;23.40;73.10;;;;;;5048570;28;20269;-72
2022/04/08 03:20:07;;;;;;;11.57;2.17;;;23.30;74.60;;;;;;5049958;28;20240;-72
2022/04/08 03:22:35;;;;;;;6.63;1.70;;;22.80;76.30;;;;;;5047612;28;20710;-72
2022/04/08 03:25:02;;;;;;;8.60;2.50;;;22.70;77.20;;;;;;5044921;28;20204;-73
2022/04/08 03:27:29;;;;;;;9.80;1.90;;;22.80;77.00;;;;;;5051088;28;20191;-71
2022/04/08 03:29:57;;;;;;;15.00;2.07;;;23.80;74.50;;;;;;5049659;28;20195;-73
2022/04/08 03:32:24;;;;;;;6.37;1.63;;;24.50;71.30;;;;;;5048658;28;20673;-72
2022/04/08 03:34:57;;;;;;;8.27;1.80;;;24.80;69.80;;;;;;5049258;28;20184;-71
2022/04/08 03:37:28;;;;;;;10.60;1.80;;;24.30;70.00;;;;;;5044915;28;20176;-72
2022/04/08 03:39:55;;;;;;;7.37;1.57;;;24.30;69.50;;;;;;5046179;28;20182;-73
2022/04/08 03:42:25;;;;;;;5.90;1.20;;;24.10;69.80;;;;;;5051634;28;20227;-75
2022/04/08 03:44:54;;;;;;;4.47;1.20;;;23.80;70.00;;;;;;5046497;28;20216;-72
2022/04/08 03:47:22;;;;;;;8.00;1.27;;;23.60;70.30;;;;;;5048356;28;20204;-73
2022/04/08 03:49:49;;;;;;;8.27;1.47;;;23.70;68.90;;;;;;5047189;28;20192;-73
2022/04/08 03:52:17;;;;;;;6.77;1.00;;;23.30;70.30;;;;;;5051533;28;20279;-71
2022/04/08 03:54:44;;;;;;;4.67;1.00;;;23.50;70.60;;;;;;5052923;28;20180;-73
2022/04/08 03:57:12;;;;;;;6.10;1.40;;;23.50;67.80;;;;;;5051951;28;20531;-72
2022/04/08 03:59:39;;;;;;;4.10;1.00;;;23.90;68.40;;;;;;5052463;28;20741;-73
2022/04/08 04:02:07;;;;;;;3.23;1.03;;;24.10;67.80;;;;;;5052227;28;20554;-72
2022/04/08 04:04:35;;;;;;;2.93;0.70;;;24.00;66.00;;;;;;5036812;28;20188;-73
2022/04/08 04:07:03;;;;;;;1.87;0.60;;;24.00;65.00;;;;;;5034949;28;20219;-72
2022/04/08 04:09:30;;;;;;;1.93;0.67;;;23.90;63.20;;;;;;5051855;28;20218;-76
2022/04/08 04:11:57;;;;;;;2.70;0.53;;;24.10;62.80;;;;;;5051621;28;20190;-73
2022/04/08 04:14:25;;;;;;;3.10;1.03;;;24.30;63.50;;;;;;5052144;28;20168;-72
2022/04/08 04:16:52;;;;;;;4.90;1.40;;;24.70;64.90;;;;;;5052348;28;20582;-74
2022/04/08 04:19:19;;;;;;;6.30;1.07;;;24.80;64.70;;;;;;5051726;28;20172;-76
2022/04/08 04:21:49;;;;;;;7.03;1.50;;;25.30;64.60;;;;;;5052182;28;20183;-79
2022/04/08 04:24:16;;;;;;;4.70;1.30;;;25.20;63.40;;;;;;5051453;28;20195;-75
2022/04/08 04:26:43;;;;;;;5.20;1.10;;;25.80;63.20;;;;;;5052021;28;20243;-77
2022/04/08 04:29:12;;;;;;;8.30;1.50;;;26.00;63.10;;;;;;5037251;28;20274;-77
2022/04/08 04:31:40;;;;;;;8.33;1.57;;;26.40;61.50;;;;;;5052370;28;20179;-75
2022/04/08 04:34:07;;;;;;;9.80;1.87;;;25.40;64.70;;;;;;5052785;28;20183;-78
2022/04/08 04:36:35;;;;;;;5.37;1.50;;;25.10;67.00;;;;;;5052202;28;20224;-72
2022/04/08 04:39:02;;;;;;;10.50;1.60;;;25.50;65.20;;;;;;5032966;28;20242;-72
2022/04/08 04:41:30;;;;;;;6.73;1.33;;;25.30;65.30;;;;;;5051730;28;20216;-79
2022/04/08 04:43:57;;;;;;;4.27;1.20;;;24.40;68.30;;;;;;5052108;28;20638;-73
2022/04/08 04:46:24;;;;;;;11.10;1.70;;;23.90;70.00;;;;;;5052032;28;20200;-77
2022/04/08 04:48:55;;;;;;;9.40;1.70;;;23.50;71.80;;;;;;5055275;28;20180;-79
2022/04/08 04:51:22;;;;;;;9.23;1.87;;;23.20;73.00;;;;;;5052995;28;20187;-74
2022/04/08 04:53:50;;;;;;;12.20;2.07;;;22.30;79.40;;;;;;5052997;28;20182;-75
2022/04/08 04:56:17;;;;;;;7.37;1.57;;;21.80;81.50;;;;;;5053069;28;20176;-77
2022/04/08 04:58:44;;;;;;;7.10;3.67;;;21.50;83.50;;;;;;5053933;28;20180;-74
2022/04/08 05:01:12;;;;;;;4.33;2.33;;;20.90;84.30;;;;;;5054720;28;20192;-76
2022/04/08 05:03:39;;;;;;;6.90;2.67;;;20.70;85.50;;;;;;5055611;28;20180;-77
2022/04/08 05:06:06;;;;;;;6.00;2.90;;;20.50;86.70;;;;;;5055054;28;20211;-76
2022/04/08 05:08:34;;;;;;;7.17;1.60;;;20.50;86.90;;;;;;5055671;28;20241;-80
2022/04/08 05:11:01;;;;;;;6.80;1.93;;;20.40;87.70;;;;;;5055779;28;20172;-77
2022/04/08 05:13:29;;;;;;;6.30;1.40;;;20.30;88.20;;;;;;5055831;28;20171;-81
2022/04/08 05:15:56;;;;;;;7.13;1.60;;;20.20;87.80;;;;;;5055672;28;20179;-76
2022/04/08 05:18:23;;;;;;;7.63;1.50;;;20.20;88.00;;;;;;5055122;28;20176;-77
2022/04/08 05:20:52;;;;;;;6.23;1.60;;;20.40;89.40;;;;;;5055864;28;20259;-82
2022/04/08 05:23:25;;;;;;;4.30;1.60;;;20.40;88.50;;;;;;5056040;28;20175;-76
2022/04/08 05:25:53;;;;;;;5.73;1.80;;;20.50;89.60;;;;;;5056119;28;20196;-85
2022/04/08 05:28:20;;;;;;;9.77;1.73;;;20.50;89.00;;;;;;5056239;28;20669;-83
2022/04/08 05:30:48;;;;;;;10.83;1.90;;;20.50;88.20;;;;;;5056021;28;20259;-85
2022/04/08 05:33:18;;;;;;;10.23;2.13;;;20.70;89.30;;;;;;5055668;28;20230;-83
2022/04/08 05:35:45;;;;;;;9.43;2.00;;;20.90;88.10;;;;;;5055657;28;20199;-87
2022/04/08 05:38:15;;;;;;;9.47;1.90;;;21.20;87.50;;;;;;5055868;28;20255;-85
2022/04/08 05:40:43;;;;;;;8.13;2.10;;;21.60;85.60;;;;;;5055083;28;20223;-86
2022/04/08 05:43:10;;;;;;;6.97;1.60;;;21.90;85.20;;;;;;5055868;28;20207;-87
2022/04/08 05:45:38;;;;;;;8.23;1.80;;;21.70;83.90;;;;;;5055527;28;20239;-84
2022/04/08 05:48:06;;;;;;;9.73;2.00;;;21.60;84.60;;;;;;5055254;28;20516;-84
2022/04/08 05:50:34;;;;;;;7.37;2.17;;;21.80;85.10;;;;;;5054931;28;20180;-84
2022/04/08 05:53:02;;;;;;;8.97;2.10;;;21.70;85.00;;;;;;5051712;28;20721;-83
2022/04/08 05:55:29;;;;;;;7.47;1.93;;;21.60;85.10;;;;;;5054903;28;20180;-83
2022/04/08 05:57:56;;;;;;;8.53;1.60;;;21.50;85.20;;;;;;5054790;28;20175;-78
2022/04/08 06:00:25;;;;;;;7.30;2.10;;;21.20;85.50;;;;;;5055094;28;20194;-80
2022/04/08 06:02:55;;;;;;;53.53;27.90;;;20.90;86.30;;;;;;5054872;28;20251;-81
2022/04/08 06:05:23;;;;;;;13.00;2.20;;;20.80;87.10;;;;;;5054977;28;20203;-87
2022/04/08 06:07:55;;;;;;;6.90;2.00;;;20.60;87.80;;;;;;5055253;28;20180;-85
2022/04/08 06:10:26;;;;;;;11.97;2.13;;;20.40;88.20;;;;;;5055164;28;20631;-85
2022/04/08 06:12:55;;;;;;;11.47;2.63;;;20.40;88.80;;;;;;5055052;28;20179;-82
2022/04/08 06:15:23;;;;;;;8.83;2.00;;;20.40;88.70;;;;;;5055043;28;20176;-85
2022/04/08 06:17:51;;;;;;;20.50;13.00;;;20.40;88.70;;;;;;5054711;28;20172;-85
2022/04/08 06:20:20;;;;;;;6.70;1.60;;;20.30;88.50;;;;;;5054948;28;20176;-89
2022/04/08 06:22:48;;;;;;;7.70;2.13;;;20.20;87.60;;;;;;5054779;28;20255;-86
2022/04/08 06:25:18;;;;;;;9.53;1.50;;;20.10;88.20;;;;;;5055450;28;20685;-86
2022/04/08 06:27:55;;;;;;;12.47;6.60;;;20.00;88.00;;;;;;5054386;28;20532;-86
2022/04/08 06:30:23;;;;;;;4.83;2.20;;;20.00;88.30;;;;;;5055011;28;20203;-80
2022/04/08 06:32:50;;;;;;;9.70;1.70;;;19.90;87.80;;;;;;5054922;28;20642;-85
2022/04/08 06:35:18;;;;;;;6.87;1.57;;;19.80;88.10;;;;;;5054666;28;20168;-85
2022/04/08 06:37:45;;;;;;;7.93;1.70;;;19.80;87.80;;;;;;5054433;28;20251;-86
2022/04/08 06:40:13;;;;;;;9.37;1.40;;;19.70;88.70;;;;;;5054780;28;20547;-85
2022/04/08 06:42:40;;;;;;;6.73;1.40;;;19.60;89.30;;;;;;5054039;28;20653;-81
2022/04/08 06:45:09;;;;;;;5.47;1.90;;;19.40;89.70;;;;;;5054637;28;20188;-87
2022/04/08 06:47:49;;;;;;;12.50;5.10;;;19.40;90.50;;;;;;5054598;28;20249;-89
2022/04/08 06:50:18;;;;;;;13.63;5.07;;;19.50;90.20;;;;;;5054224;28;20164;-82
2022/04/08 06:52:46;;;;;;;9.00;1.33;;;19.50;90.20;;;;;;5054728;28;20230;-86
2022/04/08 06:55:14;;;;;;;5.43;1.70;;;19.50;89.70;;;;;;5054775;28;20172;-85
2022/04/08 06:57:42;;;;;;;11.17;1.97;;;19.50;89.80;;;;;;5054356;28;20164;-81
2022/04/08 07:00:12;;;;;;;7.67;1.90;;;19.60;90.00;;;;;;5054524;28;20179;-87
2022/04/08 07:02:40;;;;;;;9.07;1.70;;;19.70;89.90;;;;;;5063936;28;20187;-86
2022/04/08 07:05:08;;;;;;;7.77;1.93;;;19.80;90.10;;;;;;5074190;28;20191;-85
2022/04/08 07:07:38;;;;;;;9.10;1.90;;;19.90;89.70;;;;;;5074365;28;20175;-86
2022/04/08 07:10:09;;;;;;;13.40;6.50;;;19.90;89.70;;;;;;5073164;28;20175;-85
2022/04/08 07:12:36;;;;;;;10.10;4.03;;;19.80;89.90;;;;;;5073728;28;20654;-80
2022/04/08 07:15:06;;;;;;;11.83;3.70;;;19.70;90.50;;;;;;5073836;28;20254;-84
2022/04/08 07:17:35;;;;;;;14.70;2.77;;;19.70;90.30;;;;;;5074159;28;20191;-85
2022/04/08 07:20:04;;;;;;;16.53;2.40;;;19.70;90.50;;;;;;5073916;28;20542;-80
2022/04/08 07:22:32;;;;;;;14.87;3.73;;;19.70;90.10;;;;;;5074024;28;20257;-81
2022/04/08 07:25:00;;;;;;;16.30;3.27;;;19.70;90.00;;;;;;5074059;28;20526;-83
2022/04/08 07:27:27;;;;;;;12.97;3.40;;;19.70;90.40;;;;;;5074237;28;20650;-83
2022/04/08 07:29:54;;;;;;;14.60;3.60;;;19.60;90.70;;;;;;5073861;28;20200;-82
2022/04/08 07:32:22;;;;;;;14.20;2.93;;;19.60;90.90;;;;;;5067771;28;20654;-86
2022/04/08 07:34:53;;;;;;;13.87;3.13;;;19.60;91.20;;;;;;5053823;28;20187;-80
2022/04/08 07:37:33;;;;;;;21.60;3.60;;;19.60;91.40;;;;;;5053872;28;20160;-86
2022/04/08 07:40:01;;;;;;;9.97;2.53;;;19.50;91.00;;;;;;5053439;28;20199;-80
2022/04/08 07:42:29;;;;;;;15.93;3.40;;;19.50;90.50;;;;;;5053517;28;20306;-84
2022/04/08 07:44:56;;;;;;;18.57;3.23;;;19.40;90.50;;;;;;5053796;28;20619;-80
2022/04/08 07:47:28;;;;;;;13.97;2.53;;;19.30;90.40;;;;;;5053295;28;20191;-82
2022/04/08 07:50:00;;;;;;;20.30;3.47;;;19.40;90.80;;;;;;5053239;28;20165;-81
2022/04/08 07:52:28;;;;;;;12.27;2.60;;;19.50;90.70;;;;;;5053511;28;20282;-78
2022/04/08 07:54:57;;;;;;;25.13;4.20;;;19.60;91.00;;;;;;5042533;28;20659;-79
2022/04/08 07:57:24;;;;;;;16.77;3.00;;;19.70;90.30;;;;;;5033559;28;20188;-82
2022/04/08 07:59:52;;;;;;;13.67;2.80;;;19.70;90.20;;;;;;5033658;28;20247;-75
2022/04/08 08:02:20;;;;;;;20.90;4.10;;;19.80;89.90;;;;;;5040895;28;20199;-89
2022/04/08 08:04:47;;;;;;;16.97;3.33;;;19.80;89.50;;;;;;5085565;28;20533;-84
2022/04/08 08:07:15;;;;;;;20.63;3.30;;;19.90;89.10;;;;;;5053481;28;20179;-89
2022/04/08 08:09:43;;;;;;;16.63;3.40;;;19.90;88.70;;;;;;5085395;28;20563;-80
2022/04/08 08:12:10;;;;;;;18.20;3.83;;;19.90;89.00;;;;;;5052965;28;20175;-89
2022/04/08 08:14:38;;;;;;;24.90;3.67;;;20.00;88.10;;;;;;5053285;28;20559;-85
2022/04/08 08:17:05;;;;;;;17.63;3.67;;;19.90;88.10;;;;;;5053227;28;20650;-80
2022/04/08 08:19:33;;;;;;;19.20;3.73;;;19.80;88.00;;;;;;5052964;28;20191;-85
2022/04/08 08:22:01;;;;;;;15.43;3.23;;;19.90;87.40;;;;;;5052923;28;20184;-82
2022/04/08 08:24:28;;;;;;;7.47;2.57;;;20.00;86.40;;;;;;5053182;28;20172;-83
2022/04/08 08:26:56;;;;;;;21.00;2.77;;;19.90;86.90;;;;;;5052668;28;20230;-80
2022/04/08 08:29:24;;;;;;;12.83;2.17;;;19.80;87.20;;;;;;5052857;28;20565;-88
2022/04/08 08:31:52;;;;;;;19.30;3.37;;;19.80;86.70;;;;;;5053532;28;20199;-80
2022/04/08 08:34:19;;;;;;;14.90;3.00;;;19.80;86.70;;;;;;5053179;28;20202;-88
2022/04/08 08:36:46;;;;;;;18.30;3.30;;;19.90;87.30;;;;;;5052854;28;20190;-88
2022/04/08 08:39:14;;;;;;;17.33;3.37;;;19.90;87.90;;;;;;5053203;28;20180;-86
2022/04/08 08:41:41;;;;;;;18.23;3.10;;;19.90;88.30;;;;;;5052219;28;20231;-84
2022/04/08 08:44:08;;;;;;;16.87;3.40;;;19.90;89.00;;;;;;5053245;28;20723;-87
2022/04/08 08:46:36;;;;;;;18.90;3.87;;;19.90;89.30;;;;;;5052701;28;20227;-76
2022/04/08 08:49:04;;;;;;;14.30;3.40;;;19.80;90.10;;;;;;5052605;28;20188;-82
2022/04/08 08:51:37;;;;;;;12.10;3.17;;;19.80;89.10;;;;;;5044190;28;20185;-82
2022/04/08 08:54:04;;;;;;;15.87;3.50;;;19.80;89.30;;;;;;5033512;28;20233;-82
2022/04/08 08:56:32;;;;;;;14.83;3.20;;;19.70;89.40;;;;;;5051982;28;20314;-80
2022/04/08 08:59:00;;;;;;;15.20;3.40;;;19.70;89.20;;;;;;5051733;28;20229;-82
2022/04/08 09:01:27;;;;;;;18.67;3.57;;;19.70;89.50;;;;;;5052012;28;20184;-85
2022/04/08 09:03:55;;;;;;;19.30;3.20;;;19.60;89.20;;;;;;5052112;28;20266;-82
2022/04/08 09:06:22;;;;;;;19.47;3.70;;;19.50;89.00;;;;;;5052047;28;20208;-85
2022/04/08 09:08:58;;;;;;;17.77;3.60;;;19.60;88.20;;;;;;5049248;28;20602;-81
2022/04/08 09:11:27;;;;;;;18.37;2.80;;;19.60;88.90;;;;;;5050701;28;20184;-82
2022/04/08 09:14:00;;;;;;;15.70;3.23;;;19.60;88.60;;;;;;5051907;28;20180;-82
2022/04/08 09:16:29;;;;;;;29.00;4.87;;;19.70;88.70;;;;;;5052536;28;20176;-82
2022/04/08 09:18:57;;;;;;;20.30;4.07;;;19.70;89.30;;;;;;5050533;28;20519;-84
2022/04/08 09:21:26;;;;;;;25.80;4.60;;;19.70;90.00;;;;;;5050342;28;20211;-83
2022/04/08 09:24:04;;;;;;;18.50;4.47;;;19.60;90.50;;;;;;5050407;28;20234;-77
2022/04/08 09:26:38;;;;;;;17.90;4.03;;;19.50;91.50;;;;;;5049368;28;20701;-81
2022/04/08 09:29:06;;;;;;;28.13;5.20;;;19.50;92.20;;;;;;5050905;28;20206;-80
2022/04/08 09:31:33;;;;;;;21.53;4.23;;;19.50;92.20;;;;;;5044312;28;20189;-87
2022/04/08 09:34:00;;;;;;;16.83;3.70;;;19.40;92.20;;;;;;5047320;28;20191;-84
2022/04/08 09:36:32;;;;;;;14.47;3.33;;;19.30;91.20;;;;;;5053888;28;20184;-78
2022/04/08 09:39:00;;;;;;;11.83;3.30;;;19.20;90.70;;;;;;5052591;28;20211;-78
2022/04/08 09:41:45;;;;;;;23.80;3.50;;;19.20;89.80;;;;;;5055395;28;20224;-82
2022/04/08 09:44:14;;;;;;;19.20;3.27;;;19.20;89.70;;;;;;5054653;28;20217;-77
2022/04/08 09:46:42;;;;;;;16.10;3.10;;;19.10;89.30;;;;;;5055373;28;20204;-81
2022/04/08 09:49:09;;;;;;;13.67;2.93;;;19.10;88.90;;;;;;5055595;28;20696;-84
2022/04/08 09:51:38;;;;;;;13.83;3.40;;;19.20;88.60;;;;;;5054821;28;20188;-83
2022/04/08 09:54:12;;;;;;;17.40;3.00;;;19.20;88.70;;;;;;5053822;28;20733;-88
2022/04/08 09:56:40;;;;;;;17.20;2.63;;;19.20;89.00;;;;;;5053803;28;20172;-76
2022/04/08 09:59:16;;;;;;;17.00;3.37;;;19.20;89.10;;;;;;5055312;28;20237;-91
2022/04/08 10:01:47;;;;;;;14.97;3.30;;;19.30;89.50;;;;;;5053857;28;20191;-78
2022/04/08 10:04:15;;;;;;;19.00;4.33;;;19.30;89.50;;;;;;5049437;28;20263;-85
2022/04/08 10:06:44;;;;;;;20.13;3.70;;;19.40;89.20;;;;;;5054758;28;20200;-87
2022/04/08 10:09:18;;;;;;;20.50;3.60;;;19.50;89.10;;;;;;5052713;28;20183;-81
2022/04/08 10:11:58;;;;;;;12.80;3.23;;;19.50;89.10;;;;;;5053401;28;20179;-86
2022/04/08 10:14:40;;;;;;;14.73;2.70;;;19.70;88.10;;;;;;5055074;28;20654;-85
2022/04/08 10:17:09;;;;;;;14.23;3.10;;;19.70;84.80;;;;;;5053153;28;20188;-86
2022/04/08 10:19:37;;;;;;;18.53;2.43;;;19.70;84.30;;;;;;5053594;28;20202;-78
2022/04/08 10:22:19;;;;;;;14.23;2.50;;;19.70;85.10;;;;;;5054676;28;20183;-80
2022/04/08 10:24:54;;;;;;;15.63;3.00;;;19.80;84.60;;;;;;5052638;28;20184;-79
2022/04/08 10:27:34;;;;;;;12.27;2.83;;;19.80;84.90;;;;;;5050249;28;20191;-81
2022/04/08 10:30:15;;;;;;;12.00;2.87;;;19.90;84.70;;;;;;5034655;28;20655;-81
2022/04/08 10:32:43;;;;;;;19.23;3.53;;;19.80;85.20;;;;;;5052610;28;20259;-85
2022/04/08 10:35:21;;;;;;;19.77;3.97;;;19.90;85.30;;;;;;5053449;28;20184;-79
2022/04/08 10:37:59;;;;;;;16.77;5.07;;;20.00;85.30;;;;;;5055151;28;20630;-76
2022/04/08 10:40:37;;;;;;;14.77;3.17;;;19.90;85.40;;;;;;5045095;28;20276;-77
2022/04/08 10:43:09;;;;;;;20.77;3.37;;;20.00;85.60;;;;;;5053813;28;20207;-83
2022/04/08 10:45:37;;;;;;;18.73;3.30;;;20.00;85.60;;;;;;5052692;28;20672;-82
2022/04/08 10:48:11;;;;;;;18.17;3.73;;;20.00;85.40;;;;;;5051983;28;20184;-81
2022/04/08 10:50:40;;;;;;;16.00;3.10;;;20.10;85.20;;;;;;5034616;28;20569;-82
2022/04/08 10:53:32;;;;;;;16.23;3.30;;;20.00;85.60;;;;;;5052766;28;20584;-86
2022/04/08 10:56:14;;;;;;;15.67;3.10;;;20.00;85.60;;;;;;5052739;28;20208;-82
2022/04/08 10:58:43;;;;;;;27.33;3.70;;;20.10;85.70;;;;;;5046083;28;20233;-78
2022/04/08 11:01:25;;;;;;;19.63;3.20;;;20.10;84.90;;;;;;5074101;28;20539;-80
2022/04/08 11:04:05;;;;;;;11.07;2.90;;;20.20;83.80;;;;;;5062712;28;20207;-79
2022/04/08 11:06:36;;;;;;;16.70;3.10;;;20.30;83.10;;;;;;5086601;28;20577;-80
2022/04/08 11:09:16;;;;;;;17.47;3.60;;;20.30;82.80;;;;;;5050975;28;20176;-79
2022/04/08 11:11:46;;;;;;;20.03;3.07;;;20.20;83.00;;;;;;5035564;28;20677;-82
2022/04/08 11:14:14;;;;;;;9.40;2.97;;;20.20;83.10;;;;;;5051446;28;20547;-86
2022/04/08 11:16:41;;;;;;;13.80;3.00;;;20.20;82.70;;;;;;5040995;28;20172;-78
2022/04/08 11:19:10;;;;;;;11.30;2.53;;;20.20;82.40;;;;;;5058846;28;20224;-85
2022/04/08 11:21:39;;;;;;;19.43;3.10;;;20.30;81.90;;;;;;5052920;28;20639;-82
2022/04/08 11:24:08;;;;;;;16.23;3.77;;;20.30;82.60;;;;;;5051282;28;20191;-82
2022/04/08 11:27:01;;;;;;;17.73;2.77;;;20.30;82.70;;;;;;5052083;28;20762;-79
2022/04/08 11:29:29;;;;;;;17.50;3.60;;;20.40;82.30;;;;;;5084527;28;20271;-81
2022/04/08 11:32:11;;;;;;;18.93;3.20;;;20.30;82.70;;;;;;5055953;28;20183;-79
2022/04/08 11:34:39;;;;;;;15.23;3.03;;;20.30;83.20;;;;;;5044303;28;20176;-80
2022/04/08 11:37:06;;;;;;;19.33;3.43;;;20.30;82.40;;;;;;5053072;28;20177;-80
2022/04/08 11:39:34;;;;;;;14.03;2.97;;;20.30;81.80;;;;;;5052692;28;20627;-80
2022/04/08 11:42:04;;;;;;;13.53;2.43;;;20.30;81.40;;;;;;5084581;28;20632;-79
2022/04/08 11:44:31;;;;;;;15.83;3.00;;;20.30;81.80;;;;;;5052808;28;20188;-77
2022/04/08 11:47:09;;;;;;;14.43;2.87;;;20.30;81.40;;;;;;5051110;28;20215;-78
2022/04/08 11:49:36;;;;;;;13.13;3.00;;;20.30;81.50;;;;;;5052708;28;20176;-78
2022/04/08 11:52:06;;;;;;;13.50;2.83;;;20.30;81.50;;;;;;5051758;28;20183;-76
2022/04/08 11:54:40;;;;;;;11.43;2.57;;;20.20;81.30;;;;;;5050285;28;20262;-75
2022/04/08 11:57:08;;;;;;;16.40;2.90;;;20.30;80.90;;;;;;5038083;28;20184;-77
2022/04/08 11:59:35;;;;;;;13.20;2.60;;;20.30;81.20;;;;;;5031947;28;20630;-77
2022/04/08 12:02:04;;;;;;;18.70;2.87;;;20.20;81.40;;;;;;5051282;28;20194;-76
2022/04/08 12:04:32;;;;;;;14.23;2.90;;;20.10;81.70;;;;;;5072845;28;20171;-76
2022/04/08 12:07:00;;;;;;;16.77;3.10;;;20.10;82.00;;;;;;5060229;28;20215;-77
2022/04/08 12:09:28;;;;;;;15.57;3.10;;;20.00;82.00;;;;;;5051587;28;20180;-77
2022/04/08 12:11:57;;;;;;;18.60;3.07;;;20.00;82.30;;;;;;5048361;28;20183;-76
2022/04/08 12:14:26;;;;;;;15.13;3.00;;;20.00;82.50;;;;;;5052172;28;20214;-77
2022/04/08 12:17:02;;;;;;;13.87;2.50;;;20.10;82.30;;;;;;5052844;28;20693;-77
2022/04/08 12:19:38;;;;;;;9.87;2.93;;;20.20;82.00;;;;;;5047262;28;20195;-75
2022/04/08 12:22:13;;;;;;;14.77;3.07;;;20.10;82.40;;;;;;5052053;28;20662;-75
2022/04/08 12:24:45;;;;;;;17.83;3.43;;;20.10;82.50;;;;;;5052970;28;20178;-74
2022/04/08 12:27:22;;;;;;;15.87;2.53;;;20.10;82.60;;;;;;5051154;28;20215;-75
2022/04/08 12:30:09;;;;;;;16.93;2.50;;;20.30;82.10;;;;;;5048691;28;20180;-74
2022/04/08 12:32:45;;;;;;;21.20;3.33;;;20.20;81.90;;;;;;5050164;28;20236;-72
2022/04/08 12:35:13;;;;;;;14.70;2.70;;;20.10;82.10;;;;;;5072853;28;20179;-72
2022/04/08 12:37:40;;;;;;;10.87;2.50;;;20.30;80.60;;;;;;5053954;28;20225;-74
2022/04/08 12:40:10;;;;;;;20.60;2.80;;;20.30;80.60;;;;;;5052361;28;20236;-74
2022/04/08 12:42:41;;;;;;;14.67;2.73;;;20.20;80.70;;;;;;5052297;28;20597;-74
2022/04/08 12:45:09;;;;;;;15.90;2.87;;;20.20;80.70;;;;;;5052800;28;20180;-73
2022/04/08 12:47:36;;;;;;;14.80;2.93;;;20.10;80.70;;;;;;5052122;28;20665;-74
2022/04/08 12:50:07;;;;;;;18.40;3.27;;;20.10;81.30;;;;;;5052519;28;20180;-73
2022/04/08 12:52:35;;;;;;;17.90;2.70;;;20.00;81.30;;;;;;5052665;28;20187;-73